sensor_id;sensor_type;location;lat;lon;timestamp;P1;durP1;ratioP1;P2;durP2;ratioP2
16039;SDS011;8124;48.634;8.120;2023-08-24T00:04:43;47.70;;;42.60;;
16039;SDS011;8124;48.634;8.120;2023-08-24T00:09:46;46.67;;;41.70;;
16039;SDS011;8124;48.634;8.120;2023-08-24T00:14:50;46.92;;;41.83;;
16039;SDS011;8124;48.634;8.120;2023-08-24T00:19:53;46.65;;;41.67;;
16039;SDS011;8124;48.634;8.120;2023-08-24T00:24:56;47.00;;;41.90;;
16039;SDS011;8124;48.634;8.120;2023-08-24T00:30:02;46.70;;;41.38;;
16039;SDS011;8124;48.634;8.120;2023-08-24T00:35:08;46.17;;;41.17;;
16039;SDS011;8124;48.634;8.120;2023-08-24T00:40:12;46.85;;;41.85;;
16039;SDS011;8124;48.634;8.120;2023-08-24T00:45:16;47.40;;;41.85;;
16039;SDS011;8124;48.634;8.120;2023-08-24T00:50:20;46.47;;;41.45;;
16039;SDS011;8124;48.634;8.120;2023-08-24T00:55:23;47.03;;;41.90;;
16039;SDS011;8124;48.634;8.120;2023-08-24T01:00:28;47.22;;;42.17;;
16039;SDS011;8124;48.634;8.120;2023-08-24T01:05:32;47.53;;;42.35;;
16039;SDS011;8124;48.634;8.120;2023-08-24T01:10:37;47.10;;;42.00;;
16039;SDS011;8124;48.634;8.120;2023-08-24T01:15:48;46.25;;;41.28;;
16039;SDS011;8124;48.634;8.120;2023-08-24T01:20:58;46.80;;;41.88;;
16039;SDS011;8124;48.634;8.120;2023-08-24T01:26:04;46.70;;;41.67;;
16039;SDS011;8124;48.634;8.120;2023-08-24T01:31:10;47.47;;;42.00;;
16039;SDS011;8124;48.634;8.120;2023-08-24T01:36:13;46.83;;;41.85;;
16039;SDS011;8124;48.634;8.120;2023-08-24T01:41:22;46.65;;;41.65;;
16039;SDS011;8124;48.634;8.120;2023-08-24T01:46:28;45.88;;;40.95;;
16039;SDS011;8124;48.634;8.120;2023-08-24T01:51:33;47.35;;;42.25;;
16039;SDS011;8124;48.634;8.120;2023-08-24T01:56:38;47.25;;;42.00;;
16039;SDS011;8124;48.634;8.120;2023-08-24T02:01:42;46.80;;;41.63;;
16039;SDS011;8124;48.634;8.120;2023-08-24T02:06:45;46.35;;;41.35;;
16039;SDS011;8124;48.634;8.120;2023-08-24T02:11:50;47.03;;;41.97;;
16039;SDS011;8124;48.634;8.120;2023-08-24T02:16:53;46.70;;;41.70;;
16039;SDS011;8124;48.634;8.120;2023-08-24T02:21:56;46.35;;;41.35;;
16039;SDS011;8124;48.634;8.120;2023-08-24T02:27:00;47.58;;;41.75;;
16039;SDS011;8124;48.634;8.120;2023-08-24T02:32:04;46.17;;;41.17;;
16039;SDS011;8124;48.634;8.120;2023-08-24T02:37:07;47.50;;;42.20;;
16039;SDS011;8124;48.634;8.120;2023-08-24T02:42:11;47.15;;;41.92;;
16039;SDS011;8124;48.634;8.120;2023-08-24T02:47:14;47.83;;;42.80;;
16039;SDS011;8124;48.634;8.120;2023-08-24T02:52:17;47.35;;;42.35;;
16039;SDS011;8124;48.634;8.120;2023-08-24T02:57:21;47.88;;;42.78;;
16039;SDS011;8124;48.634;8.120;2023-08-24T03:02:26;47.25;;;42.13;;
16039;SDS011;8124;48.634;8.120;2023-08-24T03:07:29;47.60;;;42.38;;
16039;SDS011;8124;48.634;8.120;2023-08-24T03:12:33;47.20;;;42.20;;
16039;SDS011;8124;48.634;8.120;2023-08-24T03:17:36;47.00;;;42.00;;
16039;SDS011;8124;48.634;8.120;2023-08-24T03:22:39;47.50;;;42.42;;
16039;SDS011;8124;48.634;8.120;2023-08-24T03:27:44;47.20;;;42.17;;
16039;SDS011;8124;48.634;8.120;2023-08-24T03:32:47;47.70;;;42.60;;
16039;SDS011;8124;48.634;8.120;2023-08-24T03:37:50;47.63;;;42.53;;
16039;SDS011;8124;48.634;8.120;2023-08-24T03:42:55;48.80;;;42.38;;
16039;SDS011;8124;48.634;8.120;2023-08-24T03:47:58;47.95;;;42.70;;
16039;SDS011;8124;48.634;8.120;2023-08-24T03:53:01;46.58;;;41.33;;
16039;SDS011;8124;48.634;8.120;2023-08-24T03:58:07;47.65;;;42.55;;
16039;SDS011;8124;48.634;8.120;2023-08-24T04:03:11;47.15;;;41.97;;
16039;SDS011;8124;48.634;8.120;2023-08-24T04:08:14;47.03;;;42.03;;
16039;SDS011;8124;48.634;8.120;2023-08-24T04:13:18;47.25;;;41.60;;
16039;SDS011;8124;48.634;8.120;2023-08-24T04:18:21;46.97;;;41.97;;
16039;SDS011;8124;48.634;8.120;2023-08-24T04:23:25;47.20;;;42.00;;
16039;SDS011;8124;48.634;8.120;2023-08-24T04:28:29;48.38;;;41.42;;
16039;SDS011;8124;48.634;8.120;2023-08-24T04:33:32;47.08;;;41.90;;
16039;SDS011;8124;48.634;8.120;2023-08-24T04:38:35;46.92;;;41.92;;
16039;SDS011;8124;48.634;8.120;2023-08-24T04:43:40;47.78;;;42.58;;
16039;SDS011;8124;48.634;8.120;2023-08-24T04:48:43;47.03;;;42.00;;
16039;SDS011;8124;48.634;8.120;2023-08-24T04:53:45;49.75;;;41.95;;
16039;SDS011;8124;48.634;8.120;2023-08-24T04:58:53;47.28;;;42.08;;
16039;SDS011;8124;48.634;8.120;2023-08-24T05:03:59;46.63;;;41.63;;
16039;SDS011;8124;48.634;8.120;2023-08-24T05:09:02;47.30;;;42.20;;
16039;SDS011;8124;48.634;8.120;2023-08-24T05:14:06;47.45;;;41.70;;
16039;SDS011;8124;48.634;8.120;2023-08-24T05:19:09;47.45;;;42.35;;
16039;SDS011;8124;48.634;8.120;2023-08-24T05:24:12;46.35;;;41.33;;
16039;SDS011;8124;48.634;8.120;2023-08-24T05:29:17;47.17;;;42.08;;
16039;SDS011;8124;48.634;8.120;2023-08-24T05:34:19;47.28;;;42.08;;
16039;SDS011;8124;48.634;8.120;2023-08-24T05:39:22;47.03;;;41.92;;
16039;SDS011;8124;48.634;8.120;2023-08-24T05:44:27;48.25;;;42.95;;
16039;SDS011;8124;48.634;8.120;2023-08-24T05:49:30;47.80;;;42.53;;
16039;SDS011;8124;48.634;8.120;2023-08-24T05:54:33;50.65;;;43.28;;
16039;SDS011;8124;48.634;8.120;2023-08-24T05:59:39;48.80;;;43.50;;
16039;SDS011;8124;48.634;8.120;2023-08-24T06:04:42;49.10;;;43.10;;
16039;SDS011;8124;48.634;8.120;2023-08-24T06:09:45;50.65;;;44.90;;
16039;SDS011;8124;48.634;8.120;2023-08-24T06:14:49;50.33;;;44.28;;
16039;SDS011;8124;48.634;8.120;2023-08-24T06:19:53;49.65;;;44.38;;
16039;SDS011;8124;48.634;8.120;2023-08-24T06:24:56;50.28;;;44.83;;
16039;SDS011;8124;48.634;8.120;2023-08-24T06:30:02;48.58;;;43.30;;
16039;SDS011;8124;48.634;8.120;2023-08-24T06:35:06;49.63;;;44.33;;
16039;SDS011;8124;48.634;8.120;2023-08-24T06:40:10;48.65;;;43.38;;
16039;SDS011;8124;48.634;8.120;2023-08-24T06:45:15;50.58;;;44.95;;
16039;SDS011;8124;48.634;8.120;2023-08-24T06:50:19;50.10;;;43.85;;
16039;SDS011;8124;48.634;8.120;2023-08-24T06:55:22;50.10;;;44.60;;
16039;SDS011;8124;48.634;8.120;2023-08-24T07:00:27;51.38;;;43.85;;
16039;SDS011;8124;48.634;8.120;2023-08-24T07:05:29;49.65;;;44.35;;
16039;SDS011;8124;48.634;8.120;2023-08-24T07:10:37;50.50;;;45.00;;
16039;SDS011;8124;48.634;8.120;2023-08-24T07:15:41;54.30;;;45.75;;
16039;SDS011;8124;48.634;8.120;2023-08-24T07:20:46;53.83;;;44.60;;
16039;SDS011;8124;48.634;8.120;2023-08-24T07:25:49;51.80;;;45.13;;
16039;SDS011;8124;48.634;8.120;2023-08-24T07:30:53;50.00;;;43.92;;
16039;SDS011;8124;48.634;8.120;2023-08-24T07:35:57;49.60;;;44.30;;
16039;SDS011;8124;48.634;8.120;2023-08-24T07:41:05;49.60;;;44.20;;
16039;SDS011;8124;48.634;8.120;2023-08-24T07:46:09;49.90;;;44.40;;
16039;SDS011;8124;48.634;8.120;2023-08-24T07:51:12;52.08;;;46.35;;
16039;SDS011;8124;48.634;8.120;2023-08-24T07:56:15;49.55;;;44.25;;
16039;SDS011;8124;48.634;8.120;2023-08-24T08:01:19;50.17;;;44.72;;
16039;SDS011;8124;48.634;8.120;2023-08-24T08:06:22;49.83;;;44.53;;
16039;SDS011;8124;48.634;8.120;2023-08-24T08:11:26;49.17;;;43.88;;
16039;SDS011;8124;48.634;8.120;2023-08-24T08:16:30;50.58;;;45.05;;
16039;SDS011;8124;48.634;8.120;2023-08-24T08:21:33;52.75;;;45.20;;
16039;SDS011;8124;48.634;8.120;2023-08-24T08:26:36;49.67;;;44.38;;
16039;SDS011;8124;48.634;8.120;2023-08-24T08:31:41;49.97;;;44.47;;
16039;SDS011;8124;48.634;8.120;2023-08-24T08:36:44;50.22;;;44.67;;
16039;SDS011;8124;48.634;8.120;2023-08-24T08:41:47;49.63;;;44.33;;
16039;SDS011;8124;48.634;8.120;2023-08-24T08:46:52;50.13;;;44.72;;
16039;SDS011;8124;48.634;8.120;2023-08-24T08:51:55;50.55;;;45.05;;
16039;SDS011;8124;48.634;8.120;2023-08-24T08:56:58;51.28;;;44.85;;
16039;SDS011;8124;48.634;8.120;2023-08-24T09:02:03;52.22;;;44.80;;
16039;SDS011;8124;48.634;8.120;2023-08-24T09:07:07;54.50;;;45.63;;
16039;SDS011;8124;48.634;8.120;2023-08-24T09:12:12;50.13;;;44.83;;
16039;SDS011;8124;48.634;8.120;2023-08-24T09:17:20;51.03;;;45.00;;
16039;SDS011;8124;48.634;8.120;2023-08-24T09:22:24;50.58;;;45.08;;
16039;SDS011;8124;48.634;8.120;2023-08-24T09:27:27;51.28;;;45.58;;
16039;SDS011;8124;48.634;8.120;2023-08-24T09:32:31;52.20;;;45.08;;
16039;SDS011;8124;48.634;8.120;2023-08-24T09:37:35;50.45;;;44.95;;
16039;SDS011;8124;48.634;8.120;2023-08-24T09:42:39;50.38;;;44.97;;
16039;SDS011;8124;48.634;8.120;2023-08-24T09:47:50;51.05;;;45.60;;
16039;SDS011;8124;48.634;8.120;2023-08-24T09:52:54;50.70;;;45.30;;
16039;SDS011;8124;48.634;8.120;2023-08-24T09:58:02;51.28;;;45.78;;
16039;SDS011;8124;48.634;8.120;2023-08-24T10:03:10;51.53;;;45.75;;
16039;SDS011;8124;48.634;8.120;2023-08-24T10:08:15;50.33;;;45.00;;
16039;SDS011;8124;48.634;8.120;2023-08-24T10:13:23;50.78;;;45.38;;
16039;SDS011;8124;48.634;8.120;2023-08-24T10:18:33;50.55;;;44.88;;
16039;SDS011;8124;48.634;8.120;2023-08-24T10:23:36;50.45;;;44.95;;
16039;SDS011;8124;48.634;8.120;2023-08-24T10:28:39;52.25;;;45.35;;
16039;SDS011;8124;48.634;8.120;2023-08-24T10:33:45;50.80;;;45.30;;
16039;SDS011;8124;48.634;8.120;2023-08-24T10:38:49;52.63;;;46.00;;
16039;SDS011;8124;48.634;8.120;2023-08-24T10:43:52;51.75;;;45.30;;
16039;SDS011;8124;48.634;8.120;2023-08-24T10:49:07;50.67;;;45.30;;
16039;SDS011;8124;48.634;8.120;2023-08-24T10:54:10;51.53;;;45.35;;
16039;SDS011;8124;48.634;8.120;2023-08-24T10:59:13;51.20;;;45.60;;
16039;SDS011;8124;48.634;8.120;2023-08-24T11:04:19;51.40;;;45.63;;
16039;SDS011;8124;48.634;8.120;2023-08-24T11:09:23;50.85;;;45.45;;
16039;SDS011;8124;48.634;8.120;2023-08-24T11:14:26;51.53;;;45.85;;
16039;SDS011;8124;48.634;8.120;2023-08-24T11:19:33;51.22;;;45.72;;
16039;SDS011;8124;48.634;8.120;2023-08-24T11:24:39;51.92;;;45.45;;
16039;SDS011;8124;48.634;8.120;2023-08-24T11:29:42;52.40;;;46.38;;
16039;SDS011;8124;48.634;8.120;2023-08-24T11:34:47;51.47;;;45.97;;
16039;SDS011;8124;48.634;8.120;2023-08-24T11:39:51;52.58;;;46.40;;
16039;SDS011;8124;48.634;8.120;2023-08-24T11:44:54;51.65;;;46.20;;
16039;SDS011;8124;48.634;8.120;2023-08-24T11:49:58;51.58;;;46.08;;
16039;SDS011;8124;48.634;8.120;2023-08-24T11:55:02;53.65;;;45.80;;
16039;SDS011;8124;48.634;8.120;2023-08-24T12:00:07;50.88;;;45.38;;
16039;SDS011;8124;48.634;8.120;2023-08-24T12:05:23;51.85;;;46.38;;
16039;SDS011;8124;48.634;8.120;2023-08-24T12:10:27;52.13;;;45.70;;
16039;SDS011;8124;48.634;8.120;2023-08-24T12:15:31;55.28;;;45.97;;
16039;SDS011;8124;48.634;8.120;2023-08-24T12:20:37;54.03;;;46.38;;
16039;SDS011;8124;48.634;8.120;2023-08-24T12:25:42;53.88;;;45.83;;
16039;SDS011;8124;48.634;8.120;2023-08-24T12:30:46;51.80;;;46.30;;
16039;SDS011;8124;48.634;8.120;2023-08-24T12:35:52;52.30;;;46.40;;
16039;SDS011;8124;48.634;8.120;2023-08-24T12:40:56;51.95;;;46.33;;
16039;SDS011;8124;48.634;8.120;2023-08-24T12:46:00;51.92;;;46.50;;
16039;SDS011;8124;48.634;8.120;2023-08-24T12:51:05;52.20;;;46.72;;
16039;SDS011;8124;48.634;8.120;2023-08-24T12:56:08;51.13;;;45.67;;
16039;SDS011;8124;48.634;8.120;2023-08-24T13:01:11;51.95;;;46.45;;
16039;SDS011;8124;48.634;8.120;2023-08-24T13:06:15;52.15;;;46.33;;
16039;SDS011;8124;48.634;8.120;2023-08-24T13:11:21;51.78;;;46.25;;
16039;SDS011;8124;48.634;8.120;2023-08-24T13:16:25;51.28;;;45.97;;
16039;SDS011;8124;48.634;8.120;2023-08-24T13:21:30;51.88;;;46.38;;
16039;SDS011;8124;48.634;8.120;2023-08-24T13:26:33;51.70;;;46.35;;
16039;SDS011;8124;48.634;8.120;2023-08-24T13:31:36;52.53;;;46.83;;
16039;SDS011;8124;48.634;8.120;2023-08-24T13:36:41;56.25;;;46.28;;
16039;SDS011;8124;48.634;8.120;2023-08-24T13:41:43;51.78;;;45.92;;
16039;SDS011;8124;48.634;8.120;2023-08-24T13:46:46;51.92;;;46.30;;
16039;SDS011;8124;48.634;8.120;2023-08-24T13:51:51;54.38;;;45.95;;
16039;SDS011;8124;48.634;8.120;2023-08-24T13:56:54;51.10;;;45.70;;
16039;SDS011;8124;48.634;8.120;2023-08-24T14:01:57;51.42;;;45.92;;
16039;SDS011;8124;48.634;8.120;2023-08-24T14:07:01;51.75;;;46.15;;
16039;SDS011;8124;48.634;8.120;2023-08-24T14:12:05;51.90;;;46.25;;
16039;SDS011;8124;48.634;8.120;2023-08-24T14:17:08;52.22;;;46.58;;
16039;SDS011;8124;48.634;8.120;2023-08-24T14:22:12;52.42;;;46.25;;
16039;SDS011;8124;48.634;8.120;2023-08-24T14:27:15;51.08;;;45.70;;
16039;SDS011;8124;48.634;8.120;2023-08-24T14:32:18;52.17;;;46.50;;
16039;SDS011;8124;48.634;8.120;2023-08-24T14:37:22;54.15;;;46.70;;
16039;SDS011;8124;48.634;8.120;2023-08-24T14:42:27;52.50;;;45.90;;
16039;SDS011;8124;48.634;8.120;2023-08-24T14:47:30;50.90;;;45.47;;
16039;SDS011;8124;48.634;8.120;2023-08-24T14:52:34;51.20;;;45.53;;
16039;SDS011;8124;48.634;8.120;2023-08-24T14:57:38;51.00;;;45.60;;
16039;SDS011;8124;48.634;8.120;2023-08-24T15:02:40;51.10;;;45.72;;
16039;SDS011;8124;48.634;8.120;2023-08-24T15:07:45;50.88;;;45.38;;
16039;SDS011;8124;48.634;8.120;2023-08-24T15:12:48;54.03;;;46.83;;
16039;SDS011;8124;48.634;8.120;2023-08-24T15:17:51;51.42;;;45.80;;
16039;SDS011;8124;48.634;8.120;2023-08-24T15:22:58;51.03;;;45.63;;
16039;SDS011;8124;48.634;8.120;2023-08-24T15:28:02;51.67;;;46.10;;
16039;SDS011;8124;48.634;8.120;2023-08-24T15:33:06;50.75;;;44.97;;
16039;SDS011;8124;48.634;8.120;2023-08-24T15:38:12;51.15;;;45.55;;
16039;SDS011;8124;48.634;8.120;2023-08-24T15:43:15;50.83;;;45.45;;
16039;SDS011;8124;48.634;8.120;2023-08-24T15:48:18;51.10;;;45.70;;
16039;SDS011;8124;48.634;8.120;2023-08-24T15:53:22;51.47;;;45.85;;
16039;SDS011;8124;48.634;8.120;2023-08-24T15:58:25;50.30;;;45.05;;
16039;SDS011;8124;48.634;8.120;2023-08-24T16:03:28;51.20;;;45.90;;
16039;SDS011;8124;48.634;8.120;2023-08-24T16:08:32;54.28;;;46.63;;
16039;SDS011;8124;48.634;8.120;2023-08-24T16:13:35;51.88;;;46.28;;
16039;SDS011;8124;48.634;8.120;2023-08-24T16:18:38;51.13;;;45.63;;
16039;SDS011;8124;48.634;8.120;2023-08-24T16:23:43;51.83;;;46.15;;
16039;SDS011;8124;48.634;8.120;2023-08-24T16:28:46;51.38;;;45.88;;
16039;SDS011;8124;48.634;8.120;2023-08-24T16:33:50;51.03;;;45.72;;
16039;SDS011;8124;48.634;8.120;2023-08-24T16:38:54;51.55;;;45.95;;
16039;SDS011;8124;48.634;8.120;2023-08-24T16:43:57;50.95;;;45.70;;
16039;SDS011;8124;48.634;8.120;2023-08-24T16:49:00;52.85;;;46.25;;
16039;SDS011;8124;48.634;8.120;2023-08-24T16:54:05;51.20;;;45.70;;
16039;SDS011;8124;48.634;8.120;2023-08-24T16:59:08;51.97;;;46.47;;
16039;SDS011;8124;48.634;8.120;2023-08-24T17:04:11;51.58;;;46.15;;
16039;SDS011;8124;48.634;8.120;2023-08-24T17:09:15;51.00;;;45.60;;
16039;SDS011;8124;48.634;8.120;2023-08-24T17:14:18;52.85;;;45.40;;
16039;SDS011;8124;48.634;8.120;2023-08-24T17:19:21;51.90;;;45.05;;
16039;SDS011;8124;48.634;8.120;2023-08-24T17:24:26;50.58;;;45.28;;
16039;SDS011;8124;48.634;8.120;2023-08-24T17:29:31;50.63;;;44.95;;
16039;SDS011;8124;48.634;8.120;2023-08-24T17:34:34;51.22;;;45.65;;
16039;SDS011;8124;48.634;8.120;2023-08-24T17:39:38;53.35;;;45.38;;
16039;SDS011;8124;48.634;8.120;2023-08-24T17:44:41;53.20;;;45.25;;
16039;SDS011;8124;48.634;8.120;2023-08-24T17:49:44;48.70;;;43.58;;
16039;SDS011;8124;48.634;8.120;2023-08-24T17:54:48;51.25;;;44.53;;
16039;SDS011;8124;48.634;8.120;2023-08-24T17:59:51;51.85;;;44.42;;
16039;SDS011;8124;48.634;8.120;2023-08-24T18:04:54;49.30;;;43.90;;
16039;SDS011;8124;48.634;8.120;2023-08-24T18:09:58;49.45;;;44.08;;
16039;SDS011;8124;48.634;8.120;2023-08-24T18:15:02;53.08;;;46.70;;
16039;SDS011;8124;48.634;8.120;2023-08-24T18:20:06;49.55;;;43.88;;
16039;SDS011;8124;48.634;8.120;2023-08-24T18:25:12;49.10;;;43.80;;
16039;SDS011;8124;48.634;8.120;2023-08-24T18:30:14;49.92;;;44.60;;
16039;SDS011;8124;48.634;8.120;2023-08-24T18:35:17;50.38;;;45.13;;
16039;SDS011;8124;48.634;8.120;2023-08-24T18:40:22;49.83;;;44.50;;
16039;SDS011;8124;48.634;8.120;2023-08-24T18:45:25;48.80;;;43.50;;
16039;SDS011;8124;48.634;8.120;2023-08-24T18:50:29;47.97;;;42.78;;
16039;SDS011;8124;48.634;8.120;2023-08-24T18:55:34;49.08;;;43.75;;
16039;SDS011;8124;48.634;8.120;2023-08-24T19:00:37;49.42;;;44.22;;
16039;SDS011;8124;48.634;8.120;2023-08-24T19:05:40;47.17;;;42.05;;
16039;SDS011;8124;48.634;8.120;2023-08-24T19:10:45;49.85;;;42.03;;
16039;SDS011;8124;48.634;8.120;2023-08-24T19:15:48;46.08;;;41.17;;
16039;SDS011;8124;48.634;8.120;2023-08-24T19:20:50;45.92;;;40.95;;
16039;SDS011;8124;48.634;8.120;2023-08-24T19:25:55;45.97;;;41.10;;
16039;SDS011;8124;48.634;8.120;2023-08-24T19:30:58;45.80;;;40.90;;
16039;SDS011;8124;48.634;8.120;2023-08-24T19:36:01;46.33;;;41.40;;
16039;SDS011;8124;48.634;8.120;2023-08-24T19:41:05;45.75;;;40.58;;
16039;SDS011;8124;48.634;8.120;2023-08-24T19:46:08;46.42;;;41.33;;
16039;SDS011;8124;48.634;8.120;2023-08-24T19:51:13;46.40;;;41.50;;
16039;SDS011;8124;48.634;8.120;2023-08-24T19:56:17;45.70;;;40.90;;
16039;SDS011;8124;48.634;8.120;2023-08-24T20:01:24;45.50;;;40.60;;
16039;SDS011;8124;48.634;8.120;2023-08-24T20:06:27;45.75;;;40.85;;
16039;SDS011;8124;48.634;8.120;2023-08-24T20:11:31;45.80;;;40.90;;
16039;SDS011;8124;48.634;8.120;2023-08-24T20:16:34;45.92;;;41.05;;
16039;SDS011;8124;48.634;8.120;2023-08-24T20:21:37;46.28;;;41.28;;
16039;SDS011;8124;48.634;8.120;2023-08-24T20:26:41;45.53;;;40.53;;
16039;SDS011;8124;48.634;8.120;2023-08-24T20:31:44;45.95;;;40.95;;
16039;SDS011;8124;48.634;8.120;2023-08-24T20:36:47;46.30;;;41.30;;
16039;SDS011;8124;48.634;8.120;2023-08-24T20:47:16;46.13;;;41.25;;
16039;SDS011;8124;48.634;8.120;2023-08-24T20:52:20;45.72;;;40.72;;
16039;SDS011;8124;48.634;8.120;2023-08-24T20:57:24;46.45;;;41.55;;
16039;SDS011;8124;48.634;8.120;2023-08-24T21:02:28;45.72;;;40.72;;
16039;SDS011;8124;48.634;8.120;2023-08-24T21:07:32;45.45;;;40.63;;
16039;SDS011;8124;48.634;8.120;2023-08-24T21:12:36;46.13;;;41.05;;
16039;SDS011;8124;48.634;8.120;2023-08-24T21:17:39;45.50;;;40.65;;
16039;SDS011;8124;48.634;8.120;2023-08-24T21:22:42;45.28;;;40.47;;
16039;SDS011;8124;48.634;8.120;2023-08-24T21:27:47;45.67;;;40.78;;
16039;SDS011;8124;48.634;8.120;2023-08-24T21:32:49;45.35;;;40.55;;
16039;SDS011;8124;48.634;8.120;2023-08-24T21:37:53;45.70;;;40.80;;
16039;SDS011;8124;48.634;8.120;2023-08-24T21:42:58;45.55;;;40.67;;
16039;SDS011;8124;48.634;8.120;2023-08-24T21:48:04;45.70;;;40.70;;
16039;SDS011;8124;48.634;8.120;2023-08-24T21:53:08;46.03;;;41.05;;
16039;SDS011;8124;48.634;8.120;2023-08-24T21:58:12;45.60;;;40.67;;
16039;SDS011;8124;48.634;8.120;2023-08-24T22:03:17;45.65;;;40.75;;
16039;SDS011;8124;48.634;8.120;2023-08-24T22:08:20;46.35;;;41.20;;
16039;SDS011;8124;48.634;8.120;2023-08-24T22:13:24;46.53;;;41.03;;
16039;SDS011;8124;48.634;8.120;2023-08-24T22:18:27;45.17;;;40.38;;
16039;SDS011;8124;48.634;8.120;2023-08-24T22:23:30;46.30;;;41.38;;
16039;SDS011;8124;48.634;8.120;2023-08-24T22:28:35;45.83;;;40.95;;
16039;SDS011;8124;48.634;8.120;2023-08-24T22:33:38;45.70;;;40.85;;
16039;SDS011;8124;48.634;8.120;2023-08-24T22:38:42;46.00;;;41.10;;
16039;SDS011;8124;48.634;8.120;2023-08-24T22:43:47;45.67;;;40.83;;
16039;SDS011;8124;48.634;8.120;2023-08-24T22:48:50;46.17;;;41.13;;
16039;SDS011;8124;48.634;8.120;2023-08-24T22:53:53;46.53;;;41.63;;
16039;SDS011;8124;48.634;8.120;2023-08-24T22:58:57;46.38;;;41.42;;
16039;SDS011;8124;48.634;8.120;2023-08-24T23:04:00;45.97;;;41.03;;
16039;SDS011;8124;48.634;8.120;2023-08-24T23:09:03;47.20;;;41.70;;
16039;SDS011;8124;48.634;8.120;2023-08-24T23:14:08;46.17;;;41.28;;
16039;SDS011;8124;48.634;8.120;2023-08-24T23:19:11;46.10;;;41.13;;
16039;SDS011;8124;48.634;8.120;2023-08-24T23:24:14;46.05;;;41.10;;
16039;SDS011;8124;48.634;8.120;2023-08-24T23:29:38;45.65;;;40.70;;
16039;SDS011;8124;48.634;8.120;2023-08-24T23:34:41;46.53;;;41.25;;
16039;SDS011;8124;48.634;8.120;2023-08-24T23:39:44;45.53;;;40.72;;
16039;SDS011;8124;48.634;8.120;2023-08-24T23:44:48;45.83;;;40.92;;
16039;SDS011;8124;48.634;8.120;2023-08-24T23:49:52;46.00;;;41.00;;
16039;SDS011;8124;48.634;8.120;2023-08-24T23:54:55;45.70;;;40.90;;
